sensor_id;sensor_type;location;lat;lon;timestamp;temperature;humidity
7564;DHT22;3823;53.586;10.040;2023-07-16T04:02:23;20.00;99.90
7564;DHT22;3823;53.586;10.040;2023-07-16T04:04:49;20.10;99.90
7564;DHT22;3823;53.586;10.040;2023-07-16T04:07:15;20.00;99.90
7564;DHT22;3823;53.586;10.040;2023-07-16T04:09:41;19.90;99.90
7564;DHT22;3823;53.586;10.040;2023-07-16T04:12:07;19.90;99.90
7564;DHT22;3823;53.586;10.040;2023-07-16T04:14:32;20.10;99.90
7564;DHT22;3823;53.586;10.040;2023-07-16T04:16:58;20.00;99.90
7564;DHT22;3823;53.586;10.040;2023-07-16T04:19:24;20.00;99.90
7564;DHT22;3823;53.586;10.040;2023-07-16T04:21:49;19.90;99.90
7564;DHT22;3823;53.586;10.040;2023-07-16T04:24:15;19.80;99.90
7564;DHT22;3823;53.586;10.040;2023-07-16T04:26:40;19.90;99.90
7564;DHT22;3823;53.586;10.040;2023-07-16T04:29:06;19.90;99.90
7564;DHT22;3823;53.586;10.040;2023-07-16T04:31:31;19.80;99.90
7564;DHT22;3823;53.586;10.040;2023-07-16T04:33:57;19.80;99.90
7564;DHT22;3823;53.586;10.040;2023-07-16T04:36:22;19.90;99.90
7564;DHT22;3823;53.586;10.040;2023-07-16T04:38:48;19.90;99.90
7564;DHT22;3823;53.586;10.040;2023-07-16T04:41:14;19.90;99.90
7564;DHT22;3823;53.586;10.040;2023-07-16T04:43:39;20.00;99.90
7564;DHT22;3823;53.586;10.040;2023-07-16T04:46:05;19.90;99.90
7564;DHT22;3823;53.586;10.040;2023-07-16T04:48:31;19.90;99.90
7564;DHT22;3823;53.586;10.040;2023-07-16T04:50:56;20.00;99.90
7564;DHT22;3823;53.586;10.040;2023-07-16T04:53:22;20.00;99.90
7564;DHT22;3823;53.586;10.040;2023-07-16T04:55:48;20.00;99.90
7564;DHT22;3823;53.586;10.040;2023-07-16T04:58:15;20.00;99.90
7564;DHT22;3823;53.586;10.040;2023-07-16T05:00:41;20.00;99.90
7564;DHT22;3823;53.586;10.040;2023-07-16T05:03:07;20.10;99.90
7564;DHT22;3823;53.586;10.040;2023-07-16T05:05:32;20.20;99.90
7564;DHT22;3823;53.586;10.040;2023-07-16T05:07:58;20.30;99.90
7564;DHT22;3823;53.586;10.040;2023-07-16T05:10:24;20.40;99.90
7564;DHT22;3823;53.586;10.040;2023-07-16T05:12:49;20.30;99.90
7564;DHT22;3823;53.586;10.040;2023-07-16T05:15:15;20.40;99.90
7564;DHT22;3823;53.586;10.040;2023-07-16T05:17:41;20.50;99.90
7564;DHT22;3823;53.586;10.040;2023-07-16T05:20:07;20.50;99.90
7564;DHT22;3823;53.586;10.040;2023-07-16T05:22:35;20.60;99.90
7564;DHT22;3823;53.586;10.040;2023-07-16T05:25:01;20.60;99.90
7564;DHT22;3823;53.586;10.040;2023-07-16T05:27:26;20.60;99.90
7564;DHT22;3823;53.586;10.040;2023-07-16T05:29:52;20.50;99.90
7564;DHT22;3823;53.586;10.040;2023-07-16T05:32:17;20.50;99.90
7564;DHT22;3823;53.586;10.040;2023-07-16T05:34:43;20.60;99.90
7564;DHT22;3823;53.586;10.040;2023-07-16T05:37:08;20.70;99.90
7564;DHT22;3823;53.586;10.040;2023-07-16T05:39:34;20.70;99.90
7564;DHT22;3823;53.586;10.040;2023-07-16T05:41:59;20.70;99.90
7564;DHT22;3823;53.586;10.040;2023-07-16T05:44:28;20.70;99.90
7564;DHT22;3823;53.586;10.040;2023-07-16T05:46:53;20.70;99.90
7564;DHT22;3823;53.586;10.040;2023-07-16T05:49:19;20.90;1.00
7564;DHT22;3823;53.586;10.040;2023-07-16T05:51:44;20.90;17.40
7564;DHT22;3823;53.586;10.040;2023-07-16T05:54:10;20.90;66.10
7564;DHT22;3823;53.586;10.040;2023-07-16T05:56:35;21.00;1.00
7564;DHT22;3823;53.586;10.040;2023-07-16T05:59:01;21.00;1.00
7564;DHT22;3823;53.586;10.040;2023-07-16T06:01:26;21.10;1.00
7564;DHT22;3823;53.586;10.040;2023-07-16T06:03:52;20.90;1.00
7564;DHT22;3823;53.586;10.040;2023-07-16T06:06:18;21.00;1.00
7564;DHT22;3823;53.586;10.040;2023-07-16T06:08:43;21.10;1.00
7564;DHT22;3823;53.586;10.040;2023-07-16T06:11:09;21.30;1.00
7564;DHT22;3823;53.586;10.040;2023-07-16T06:13:34;21.30;1.00
7564;DHT22;3823;53.586;10.040;2023-07-16T06:16:00;21.40;1.00
7564;DHT22;3823;53.586;10.040;2023-07-16T06:18:25;21.40;1.00
7564;DHT22;3823;53.586;10.040;2023-07-16T06:20:52;21.40;1.00
7564;DHT22;3823;53.586;10.040;2023-07-16T06:23:18;21.50;1.00
7564;DHT22;3823;53.586;10.040;2023-07-16T06:25:43;21.50;1.00
7564;DHT22;3823;53.586;10.040;2023-07-16T06:28:10;21.70;1.00
7564;DHT22;3823;53.586;10.040;2023-07-16T06:30:37;21.60;1.00
7564;DHT22;3823;53.586;10.040;2023-07-16T06:33:02;21.70;1.00
7564;DHT22;3823;53.586;10.040;2023-07-16T06:35:28;21.80;1.00
7564;DHT22;3823;53.586;10.040;2023-07-16T06:37:54;21.90;1.00
7564;DHT22;3823;53.586;10.040;2023-07-16T06:40:19;21.90;1.00
7564;DHT22;3823;53.586;10.040;2023-07-16T06:42:45;21.90;1.00
7564;DHT22;3823;53.586;10.040;2023-07-16T06:45:10;21.90;1.00
7564;DHT22;3823;53.586;10.040;2023-07-16T06:47:36;21.90;1.00
7564;DHT22;3823;53.586;10.040;2023-07-16T06:50:02;21.80;1.00
7564;DHT22;3823;53.586;10.040;2023-07-16T06:52:28;22.00;1.00
7564;DHT22;3823;53.586;10.040;2023-07-16T06:54:54;22.20;1.00
7564;DHT22;3823;53.586;10.040;2023-07-16T06:57:20;22.10;1.00
7564;DHT22;3823;53.586;10.040;2023-07-16T06:59:46;22.10;1.00
7564;DHT22;3823;53.586;10.040;2023-07-16T07:02:12;22.20;1.00
7564;DHT22;3823;53.586;10.040;2023-07-16T07:04:37;22.30;1.00
7564;DHT22;3823;53.586;10.040;2023-07-16T07:07:03;22.40;1.00
7564;DHT22;3823;53.586;10.040;2023-07-16T07:09:29;22.50;1.00
7564;DHT22;3823;53.586;10.040;2023-07-16T07:11:54;22.40;1.00
7564;DHT22;3823;53.586;10.040;2023-07-16T07:14:20;22.20;1.00
7564;DHT22;3823;53.586;10.040;2023-07-16T07:16:46;22.30;1.00
7564;DHT22;3823;53.586;10.040;2023-07-16T07:19:11;22.50;1.00
7564;DHT22;3823;53.586;10.040;2023-07-16T07:21:37;22.60;1.00
7564;DHT22;3823;53.586;10.040;2023-07-16T07:24:05;22.70;1.00
7564;DHT22;3823;53.586;10.040;2023-07-16T07:26:31;22.60;1.00
7564;DHT22;3823;53.586;10.040;2023-07-16T07:28:57;22.50;1.00
7564;DHT22;3823;53.586;10.040;2023-07-16T07:31:22;22.60;1.00
7564;DHT22;3823;53.586;10.040;2023-07-16T07:33:48;22.80;1.00
7564;DHT22;3823;53.586;10.040;2023-07-16T07:36:13;23.00;1.00
7564;DHT22;3823;53.586;10.040;2023-07-16T07:38:39;23.20;1.00
7564;DHT22;3823;53.586;10.040;2023-07-16T07:41:05;23.10;1.00
7564;DHT22;3823;53.586;10.040;2023-07-16T07:43:31;23.00;1.00
7564;DHT22;3823;53.586;10.040;2023-07-16T07:45:56;23.10;1.00
7564;DHT22;3823;53.586;10.040;2023-07-16T07:48:22;23.30;1.00
7564;DHT22;3823;53.586;10.040;2023-07-16T07:50:48;23.50;1.00
7564;DHT22;3823;53.586;10.040;2023-07-16T07:53:13;23.40;1.00
7564;DHT22;3823;53.586;10.040;2023-07-16T07:55:40;23.30;1.00
7564;DHT22;3823;53.586;10.040;2023-07-16T07:58:07;23.30;1.00
7564;DHT22;3823;53.586;10.040;2023-07-16T08:00:33;23.30;1.00
7564;DHT22;3823;53.586;10.040;2023-07-16T08:02:58;23.30;1.00
7564;DHT22;3823;53.586;10.040;2023-07-16T08:05:24;23.30;1.00
7564;DHT22;3823;53.586;10.040;2023-07-16T08:07:49;23.40;1.00
7564;DHT22;3823;53.586;10.040;2023-07-16T08:10:15;23.30;1.00
7564;DHT22;3823;53.586;10.040;2023-07-16T08:12:40;23.40;1.00
7564;DHT22;3823;53.586;10.040;2023-07-16T08:15:06;23.60;1.00
7564;DHT22;3823;53.586;10.040;2023-07-16T08:17:33;23.70;1.00
7564;DHT22;3823;53.586;10.040;2023-07-16T08:19:59;23.90;1.00
7564;DHT22;3823;53.586;10.040;2023-07-16T08:22:24;23.70;1.00
7564;DHT22;3823;53.586;10.040;2023-07-16T08:24:51;23.10;1.00
7564;DHT22;3823;53.586;10.040;2023-07-16T08:27:16;23.00;1.00
7564;DHT22;3823;53.586;10.040;2023-07-16T08:29:42;23.10;1.00
7564;DHT22;3823;53.586;10.040;2023-07-16T08:32:08;23.30;1.00
7564;DHT22;3823;53.586;10.040;2023-07-16T08:34:33;23.50;1.00
7564;DHT22;3823;53.586;10.040;2023-07-16T08:36:59;23.40;1.00
7564;DHT22;3823;53.586;10.040;2023-07-16T08:39:24;23.20;1.00
7564;DHT22;3823;53.586;10.040;2023-07-16T08:41:50;23.20;1.00
7564;DHT22;3823;53.586;10.040;2023-07-16T08:44:16;23.60;1.00
7564;DHT22;3823;53.586;10.040;2023-07-16T08:46:42;23.50;1.00
7564;DHT22;3823;53.586;10.040;2023-07-16T08:49:08;23.40;1.00
7564;DHT22;3823;53.586;10.040;2023-07-16T08:51:34;23.30;1.00
7564;DHT22;3823;53.586;10.040;2023-07-16T08:54:01;23.10;1.00
7564;DHT22;3823;53.586;10.040;2023-07-16T08:56:27;23.00;1.00
7564;DHT22;3823;53.586;10.040;2023-07-16T08:58:54;22.90;1.00
7564;DHT22;3823;53.586;10.040;2023-07-16T09:01:21;22.90;1.00
7564;DHT22;3823;53.586;10.040;2023-07-16T09:03:47;23.00;1.00
7564;DHT22;3823;53.586;10.040;2023-07-16T09:06:12;23.00;1.00
7564;DHT22;3823;53.586;10.040;2023-07-16T09:08:38;23.00;1.00
7564;DHT22;3823;53.586;10.040;2023-07-16T09:11:04;22.90;1.00
7564;DHT22;3823;53.586;10.040;2023-07-16T09:13:29;22.80;1.00
7564;DHT22;3823;53.586;10.040;2023-07-16T09:15:56;22.90;1.00
7564;DHT22;3823;53.586;10.040;2023-07-16T09:18:25;22.90;1.00
7564;DHT22;3823;53.586;10.040;2023-07-16T09:20:58;22.90;1.00
7564;DHT22;3823;53.586;10.040;2023-07-16T09:23:26;23.00;1.00
7564;DHT22;3823;53.586;10.040;2023-07-16T09:25:54;23.20;1.00
7564;DHT22;3823;53.586;10.040;2023-07-16T09:28:19;23.60;1.00
7564;DHT22;3823;53.586;10.040;2023-07-16T09:30:46;23.90;1.00
7564;DHT22;3823;53.586;10.040;2023-07-16T09:33:18;23.80;1.00
7564;DHT22;3823;53.586;10.040;2023-07-16T09:35:47;23.80;1.00
7564;DHT22;3823;53.586;10.040;2023-07-16T09:38:12;23.90;1.00
7564;DHT22;3823;53.586;10.040;2023-07-16T09:40:39;23.90;1.00
7564;DHT22;3823;53.586;10.040;2023-07-16T09:43:08;23.80;1.00
7564;DHT22;3823;53.586;10.040;2023-07-16T09:45:35;23.60;1.00
7564;DHT22;3823;53.586;10.040;2023-07-16T09:48:01;23.80;1.00
7564;DHT22;3823;53.586;10.040;2023-07-16T09:50:34;23.70;1.00
7564;DHT22;3823;53.586;10.040;2023-07-16T09:53:00;23.50;1.00
7564;DHT22;3823;53.586;10.040;2023-07-16T09:55:28;23.40;1.00
7564;DHT22;3823;53.586;10.040;2023-07-16T09:57:57;23.30;1.00
7564;DHT22;3823;53.586;10.040;2023-07-16T10:00:25;23.30;1.00
7564;DHT22;3823;53.586;10.040;2023-07-16T10:02:51;23.40;1.00
7564;DHT22;3823;53.586;10.040;2023-07-16T10:05:19;23.20;1.00
7564;DHT22;3823;53.586;10.040;2023-07-16T10:07:52;23.20;1.00
7564;DHT22;3823;53.586;10.040;2023-07-16T10:10:18;23.50;1.00
7564;DHT22;3823;53.586;10.040;2023-07-16T10:13:00;23.40;1.00
7564;DHT22;3823;53.586;10.040;2023-07-16T10:15:27;23.20;1.00
7564;DHT22;3823;53.586;10.040;2023-07-16T10:17:53;23.30;1.00
7564;DHT22;3823;53.586;10.040;2023-07-16T10:20:34;23.60;1.00
7564;DHT22;3823;53.586;10.040;2023-07-16T10:23:13;23.90;1.00
7564;DHT22;3823;53.586;10.040;2023-07-16T10:25:40;24.20;1.00
7564;DHT22;3823;53.586;10.040;2023-07-16T10:28:05;24.20;1.00
7564;DHT22;3823;53.586;10.040;2023-07-16T10:30:32;24.00;1.00
7564;DHT22;3823;53.586;10.040;2023-07-16T10:32:57;23.70;1.00
7564;DHT22;3823;53.586;10.040;2023-07-16T10:35:23;23.80;1.00
7564;DHT22;3823;53.586;10.040;2023-07-16T10:37:50;24.10;1.00
7564;DHT22;3823;53.586;10.040;2023-07-16T10:40:16;24.30;1.00
7564;DHT22;3823;53.586;10.040;2023-07-16T10:42:43;24.10;1.00
7564;DHT22;3823;53.586;10.040;2023-07-16T10:45:09;23.60;1.00
7564;DHT22;3823;53.586;10.040;2023-07-16T10:47:37;23.70;1.00
7564;DHT22;3823;53.586;10.040;2023-07-16T10:50:08;24.10;1.00
7564;DHT22;3823;53.586;10.040;2023-07-16T10:52:37;24.50;1.00
7564;DHT22;3823;53.586;10.040;2023-07-16T10:55:05;24.40;1.00
7564;DHT22;3823;53.586;10.040;2023-07-16T10:57:31;23.90;1.00
7564;DHT22;3823;53.586;10.040;2023-07-16T10:59:58;23.70;1.00
7564;DHT22;3823;53.586;10.040;2023-07-16T11:02:26;23.70;1.00
7564;DHT22;3823;53.586;10.040;2023-07-16T11:04:52;23.60;1.00
7564;DHT22;3823;53.586;10.040;2023-07-16T11:07:19;23.60;1.00
7564;DHT22;3823;53.586;10.040;2023-07-16T11:09:53;23.60;1.00
7564;DHT22;3823;53.586;10.040;2023-07-16T11:12:23;23.80;1.00
7564;DHT22;3823;53.586;10.040;2023-07-16T11:14:54;23.90;1.00
7564;DHT22;3823;53.586;10.040;2023-07-16T11:17:21;23.80;1.00
7564;DHT22;3823;53.586;10.040;2023-07-16T11:19:49;24.10;1.00
7564;DHT22;3823;53.586;10.040;2023-07-16T11:22:16;24.30;1.00
7564;DHT22;3823;53.586;10.040;2023-07-16T11:24:48;24.30;1.00
7564;DHT22;3823;53.586;10.040;2023-07-16T11:27:30;24.40;1.00
7564;DHT22;3823;53.586;10.040;2023-07-16T11:29:58;24.60;1.00
7564;DHT22;3823;53.586;10.040;2023-07-16T11:35:01;24.40;1.00
7564;DHT22;3823;53.586;10.040;2023-07-16T11:37:28;24.60;1.00
7564;DHT22;3823;53.586;10.040;2023-07-16T11:39:58;24.80;1.00
7564;DHT22;3823;53.586;10.040;2023-07-16T11:42:31;25.00;1.00
7564;DHT22;3823;53.586;10.040;2023-07-16T11:44:58;24.90;1.00
7564;DHT22;3823;53.586;10.040;2023-07-16T11:47:24;24.60;1.00
7564;DHT22;3823;53.586;10.040;2023-07-16T11:49:50;24.60;1.00
7564;DHT22;3823;53.586;10.040;2023-07-16T11:52:23;24.40;1.00
7564;DHT22;3823;53.586;10.040;2023-07-16T11:54:49;24.70;1.00
7564;DHT22;3823;53.586;10.040;2023-07-16T11:57:15;24.80;1.00
7564;DHT22;3823;53.586;10.040;2023-07-16T11:59:41;24.90;1.00
7564;DHT22;3823;53.586;10.040;2023-07-16T12:02:07;25.00;1.00
7564;DHT22;3823;53.586;10.040;2023-07-16T12:04:32;24.70;1.00
7564;DHT22;3823;53.586;10.040;2023-07-16T12:06:58;24.70;1.00
7564;DHT22;3823;53.586;10.040;2023-07-16T12:09:23;24.70;1.00
7564;DHT22;3823;53.586;10.040;2023-07-16T12:11:49;24.80;1.00
7564;DHT22;3823;53.586;10.040;2023-07-16T12:14:14;24.70;1.00
7564;DHT22;3823;53.586;10.040;2023-07-16T12:16:40;24.70;1.00
7564;DHT22;3823;53.586;10.040;2023-07-16T12:19:08;24.60;1.00
7564;DHT22;3823;53.586;10.040;2023-07-16T12:21:34;24.40;1.00
7564;DHT22;3823;53.586;10.040;2023-07-16T12:23:59;24.30;1.00
7564;DHT22;3823;53.586;10.040;2023-07-16T12:26:25;24.40;1.00
7564;DHT22;3823;53.586;10.040;2023-07-16T12:28:50;24.50;1.00
7564;DHT22;3823;53.586;10.040;2023-07-16T12:31:16;24.70;1.00
7564;DHT22;3823;53.586;10.040;2023-07-16T12:33:43;24.70;1.00
7564;DHT22;3823;53.586;10.040;2023-07-16T12:36:08;24.70;1.00
7564;DHT22;3823;53.586;10.040;2023-07-16T12:38:34;24.70;1.00
7564;DHT22;3823;53.586;10.040;2023-07-16T12:40:59;24.60;1.00
7564;DHT22;3823;53.586;10.040;2023-07-16T12:43:25;24.80;1.00
7564;DHT22;3823;53.586;10.040;2023-07-16T12:45:50;24.80;1.00
7564;DHT22;3823;53.586;10.040;2023-07-16T12:48:16;24.90;1.00
7564;DHT22;3823;53.586;10.040;2023-07-16T12:50:41;25.00;1.00
7564;DHT22;3823;53.586;10.040;2023-07-16T12:53:08;25.00;1.00
7564;DHT22;3823;53.586;10.040;2023-07-16T12:55:33;25.20;1.00
7564;DHT22;3823;53.586;10.040;2023-07-16T12:57:59;25.20;1.00
7564;DHT22;3823;53.586;10.040;2023-07-16T13:00:25;25.10;1.00
7564;DHT22;3823;53.586;10.040;2023-07-16T13:02:50;25.10;1.00
7564;DHT22;3823;53.586;10.040;2023-07-16T13:05:16;25.00;1.00
7564;DHT22;3823;53.586;10.040;2023-07-16T13:07:41;24.90;1.00
7564;DHT22;3823;53.586;10.040;2023-07-16T13:10:08;24.70;1.00
7564;DHT22;3823;53.586;10.040;2023-07-16T13:12:34;24.70;1.00
7564;DHT22;3823;53.586;10.040;2023-07-16T13:15:00;24.50;1.00
7564;DHT22;3823;53.586;10.040;2023-07-16T13:17:25;24.40;1.00
7564;DHT22;3823;53.586;10.040;2023-07-16T13:19:51;24.50;1.00
7564;DHT22;3823;53.586;10.040;2023-07-16T13:22:17;24.70;1.00
7564;DHT22;3823;53.586;10.040;2023-07-16T13:24:42;25.00;1.00
7564;DHT22;3823;53.586;10.040;2023-07-16T13:27:18;25.00;1.00
7564;DHT22;3823;53.586;10.040;2023-07-16T13:29:44;25.00;1.00
7564;DHT22;3823;53.586;10.040;2023-07-16T13:32:09;24.90;1.00
7564;DHT22;3823;53.586;10.040;2023-07-16T13:34:35;24.70;1.00
7564;DHT22;3823;53.586;10.040;2023-07-16T13:37:00;24.70;1.00
7564;DHT22;3823;53.586;10.040;2023-07-16T13:39:26;24.60;1.00
7564;DHT22;3823;53.586;10.040;2023-07-16T13:41:51;24.60;1.00
7564;DHT22;3823;53.586;10.040;2023-07-16T13:44:17;24.70;1.00
7564;DHT22;3823;53.586;10.040;2023-07-16T13:46:42;24.80;1.00
7564;DHT22;3823;53.586;10.040;2023-07-16T13:49:08;24.50;1.00
7564;DHT22;3823;53.586;10.040;2023-07-16T13:51:34;24.70;1.00
7564;DHT22;3823;53.586;10.040;2023-07-16T13:53:59;24.60;1.00
7564;DHT22;3823;53.586;10.040;2023-07-16T13:56:25;24.70;1.00
7564;DHT22;3823;53.586;10.040;2023-07-16T13:58:50;24.80;1.00
7564;DHT22;3823;53.586;10.040;2023-07-16T14:01:16;25.00;1.00
7564;DHT22;3823;53.586;10.040;2023-07-16T14:03:42;25.20;1.00
7564;DHT22;3823;53.586;10.040;2023-07-16T14:06:07;25.20;1.00
7564;DHT22;3823;53.586;10.040;2023-07-16T14:08:33;25.00;1.00
7564;DHT22;3823;53.586;10.040;2023-07-16T14:11:01;24.90;1.00
7564;DHT22;3823;53.586;10.040;2023-07-16T14:13:27;24.70;1.00
7564;DHT22;3823;53.586;10.040;2023-07-16T14:15:52;24.60;1.00
7564;DHT22;3823;53.586;10.040;2023-07-16T14:18:18;24.40;1.00
7564;DHT22;3823;53.586;10.040;2023-07-16T14:20:43;24.40;1.00
7564;DHT22;3823;53.586;10.040;2023-07-16T14:23:09;24.40;1.00
7564;DHT22;3823;53.586;10.040;2023-07-16T14:25:34;24.30;1.00
7564;DHT22;3823;53.586;10.040;2023-07-16T14:28:00;24.30;1.00
7564;DHT22;3823;53.586;10.040;2023-07-16T14:30:25;24.20;1.00
7564;DHT22;3823;53.586;10.040;2023-07-16T14:32:51;24.20;1.00
7564;DHT22;3823;53.586;10.040;2023-07-16T14:35:16;24.30;1.00
7564;DHT22;3823;53.586;10.040;2023-07-16T14:37:42;24.20;1.00
7564;DHT22;3823;53.586;10.040;2023-07-16T14:40:08;24.30;1.00
7564;DHT22;3823;53.586;10.040;2023-07-16T14:42:34;24.40;1.00
7564;DHT22;3823;53.586;10.040;2023-07-16T14:45:00;24.40;1.00
7564;DHT22;3823;53.586;10.040;2023-07-16T14:47:25;24.50;1.00
7564;DHT22;3823;53.586;10.040;2023-07-16T14:49:51;24.50;1.00
7564;DHT22;3823;53.586;10.040;2023-07-16T14:52:16;24.50;1.00
7564;DHT22;3823;53.586;10.040;2023-07-16T14:54:42;24.70;1.00
7564;DHT22;3823;53.586;10.040;2023-07-16T14:57:07;24.60;1.00
7564;DHT22;3823;53.586;10.040;2023-07-16T14:59:33;24.50;1.00
7564;DHT22;3823;53.586;10.040;2023-07-16T15:01:59;24.50;1.00
7564;DHT22;3823;53.586;10.040;2023-07-16T15:04:25;24.60;1.00
7564;DHT22;3823;53.586;10.040;2023-07-16T15:06:51;24.50;1.00
7564;DHT22;3823;53.586;10.040;2023-07-16T15:09:16;24.50;1.00
7564;DHT22;3823;53.586;10.040;2023-07-16T15:11:42;24.60;1.00
7564;DHT22;3823;53.586;10.040;2023-07-16T15:14:07;24.70;1.00
7564;DHT22;3823;53.586;10.040;2023-07-16T15:16:33;24.70;1.00
7564;DHT22;3823;53.586;10.040;2023-07-16T15:18:59;24.60;1.00
7564;DHT22;3823;53.586;10.040;2023-07-16T15:21:25;24.60;1.00
7564;DHT22;3823;53.586;10.040;2023-07-16T15:23:50;24.70;1.00
7564;DHT22;3823;53.586;10.040;2023-07-16T15:26:16;24.60;1.00
7564;DHT22;3823;53.586;10.040;2023-07-16T15:28:42;24.70;1.00
7564;DHT22;3823;53.586;10.040;2023-07-16T15:31:09;24.70;1.00
7564;DHT22;3823;53.586;10.040;2023-07-16T15:33:35;24.70;1.00
7564;DHT22;3823;53.586;10.040;2023-07-16T15:36:00;24.60;1.00
7564;DHT22;3823;53.586;10.040;2023-07-16T15:38:26;24.60;1.00
7564;DHT22;3823;53.586;10.040;2023-07-16T15:40:52;24.70;1.00
7564;DHT22;3823;53.586;10.040;2023-07-16T15:43:18;24.70;1.00
7564;DHT22;3823;53.586;10.040;2023-07-16T15:45:43;24.80;1.00
7564;DHT22;3823;53.586;10.040;2023-07-16T15:48:09;24.80;1.00
7564;DHT22;3823;53.586;10.040;2023-07-16T15:50:37;24.70;1.00
7564;DHT22;3823;53.586;10.040;2023-07-16T15:53:03;24.60;1.00
7564;DHT22;3823;53.586;10.040;2023-07-16T15:55:28;24.50;1.00
7564;DHT22;3823;53.586;10.040;2023-07-16T15:57:54;24.50;1.00
7564;DHT22;3823;53.586;10.040;2023-07-16T16:00:20;24.40;1.00
7564;DHT22;3823;53.586;10.040;2023-07-16T16:02:47;24.30;1.00
7564;DHT22;3823;53.586;10.040;2023-07-16T16:05:15;24.40;1.00
7564;DHT22;3823;53.586;10.040;2023-07-16T16:07:46;24.50;1.00
7564;DHT22;3823;53.586;10.040;2023-07-16T16:10:13;24.40;1.00
7564;DHT22;3823;53.586;10.040;2023-07-16T16:12:39;24.30;1.00
7564;DHT22;3823;53.586;10.040;2023-07-16T16:15:05;24.30;1.00
7564;DHT22;3823;53.586;10.040;2023-07-16T16:17:31;24.30;1.00
7564;DHT22;3823;53.586;10.040;2023-07-16T16:19:57;24.30;1.00
7564;DHT22;3823;53.586;10.040;2023-07-16T16:22:22;24.30;1.00
7564;DHT22;3823;53.586;10.040;2023-07-16T16:24:52;24.40;1.00
7564;DHT22;3823;53.586;10.040;2023-07-16T16:27:17;24.30;1.00
7564;DHT22;3823;53.586;10.040;2023-07-16T16:29:43;24.40;1.00
7564;DHT22;3823;53.586;10.040;2023-07-16T16:32:08;24.40;1.00
7564;DHT22;3823;53.586;10.040;2023-07-16T16:34:35;24.50;1.00
7564;DHT22;3823;53.586;10.040;2023-07-16T16:37:02;24.30;1.00
7564;DHT22;3823;53.586;10.040;2023-07-16T16:39:28;24.30;1.00
7564;DHT22;3823;53.586;10.040;2023-07-16T16:41:53;24.10;1.00
7564;DHT22;3823;53.586;10.040;2023-07-16T16:44:19;24.10;1.00
7564;DHT22;3823;53.586;10.040;2023-07-16T16:46:45;24.10;1.00
7564;DHT22;3823;53.586;10.040;2023-07-16T16:49:10;24.10;1.00
7564;DHT22;3823;53.586;10.040;2023-07-16T16:51:36;24.20;1.00
7564;DHT22;3823;53.586;10.040;2023-07-16T16:54:01;24.10;1.00
7564;DHT22;3823;53.586;10.040;2023-07-16T16:56:27;24.20;1.00
7564;DHT22;3823;53.586;10.040;2023-07-16T16:58:52;24.10;1.00
7564;DHT22;3823;53.586;10.040;2023-07-16T17:01:18;24.10;1.00
7564;DHT22;3823;53.586;10.040;2023-07-16T17:03:45;24.10;1.00
7564;DHT22;3823;53.586;10.040;2023-07-16T17:06:10;24.10;1.00
7564;DHT22;3823;53.586;10.040;2023-07-16T17:08:36;24.10;1.00
7564;DHT22;3823;53.586;10.040;2023-07-16T17:11:02;24.10;1.00
7564;DHT22;3823;53.586;10.040;2023-07-16T17:13:27;24.10;1.00
7564;DHT22;3823;53.586;10.040;2023-07-16T17:15:53;24.00;1.00
7564;DHT22;3823;53.586;10.040;2023-07-16T17:18:18;24.00;1.00
7564;DHT22;3823;53.586;10.040;2023-07-16T17:20:44;24.00;1.00
7564;DHT22;3823;53.586;10.040;2023-07-16T17:23:10;23.80;1.00
7564;DHT22;3823;53.586;10.040;2023-07-16T17:25:36;23.70;1.00
7564;DHT22;3823;53.586;10.040;2023-07-16T17:28:01;23.70;1.00
7564;DHT22;3823;53.586;10.040;2023-07-16T17:30:27;23.70;1.00
7564;DHT22;3823;53.586;10.040;2023-07-16T17:32:53;23.70;1.00
7564;DHT22;3823;53.586;10.040;2023-07-16T17:35:19;23.80;1.00
7564;DHT22;3823;53.586;10.040;2023-07-16T17:37:44;23.70;1.00
7564;DHT22;3823;53.586;10.040;2023-07-16T17:40:10;23.70;1.00
7564;DHT22;3823;53.586;10.040;2023-07-16T17:42:40;23.60;1.00
7564;DHT22;3823;53.586;10.040;2023-07-16T17:45:07;23.60;1.00
7564;DHT22;3823;53.586;10.040;2023-07-16T17:47:33;23.60;1.00
7564;DHT22;3823;53.586;10.040;2023-07-16T17:49:58;23.60;1.00
7564;DHT22;3823;53.586;10.040;2023-07-16T17:52:24;23.60;1.00
7564;DHT22;3823;53.586;10.040;2023-07-16T17:54:49;23.50;1.00
7564;DHT22;3823;53.586;10.040;2023-07-16T17:57:15;23.50;1.00
7564;DHT22;3823;53.586;10.040;2023-07-16T17:59:40;23.60;1.00
7564;DHT22;3823;53.586;10.040;2023-07-16T18:02:06;23.70;1.00
7564;DHT22;3823;53.586;10.040;2023-07-16T18:04:32;23.80;1.00
7564;DHT22;3823;53.586;10.040;2023-07-16T18:06:57;23.80;1.00
7564;DHT22;3823;53.586;10.040;2023-07-16T18:09:23;23.80;1.00
7564;DHT22;3823;53.586;10.040;2023-07-16T18:11:49;23.70;1.00
7564;DHT22;3823;53.586;10.040;2023-07-16T18:14:14;23.60;1.00
7564;DHT22;3823;53.586;10.040;2023-07-16T18:16:40;23.60;1.00
7564;DHT22;3823;53.586;10.040;2023-07-16T18:19:07;23.50;1.00
7564;DHT22;3823;53.586;10.040;2023-07-16T18:21:36;23.50;1.00
7564;DHT22;3823;53.586;10.040;2023-07-16T18:24:01;23.40;1.00
7564;DHT22;3823;53.586;10.040;2023-07-16T18:26:28;23.40;1.00
7564;DHT22;3823;53.586;10.040;2023-07-16T18:28:53;23.50;1.00
7564;DHT22;3823;53.586;10.040;2023-07-16T18:31:19;23.60;1.00
7564;DHT22;3823;53.586;10.040;2023-07-16T18:33:45;23.50;1.00
7564;DHT22;3823;53.586;10.040;2023-07-16T18:36:10;23.30;1.00
7564;DHT22;3823;53.586;10.040;2023-07-16T18:38:36;23.30;1.00
7564;DHT22;3823;53.586;10.040;2023-07-16T18:41:02;23.30;1.00
7564;DHT22;3823;53.586;10.040;2023-07-16T18:43:27;23.30;1.00
7564;DHT22;3823;53.586;10.040;2023-07-16T18:45:53;23.30;1.00
7564;DHT22;3823;53.586;10.040;2023-07-16T18:48:19;23.20;1.00
7564;DHT22;3823;53.586;10.040;2023-07-16T18:50:45;23.20;1.00
7564;DHT22;3823;53.586;10.040;2023-07-16T18:53:10;23.10;1.00
7564;DHT22;3823;53.586;10.040;2023-07-16T18:55:36;23.20;1.00
7564;DHT22;3823;53.586;10.040;2023-07-16T18:58:02;23.10;1.00
7564;DHT22;3823;53.586;10.040;2023-07-16T19:00:27;23.00;1.00
7564;DHT22;3823;53.586;10.040;2023-07-16T19:02:53;23.00;1.00
7564;DHT22;3823;53.586;10.040;2023-07-16T19:05:18;23.00;1.00
7564;DHT22;3823;53.586;10.040;2023-07-16T19:07:44;23.00;1.00
7564;DHT22;3823;53.586;10.040;2023-07-16T19:10:10;23.00;1.00
7564;DHT22;3823;53.586;10.040;2023-07-16T19:12:36;23.00;1.00
7564;DHT22;3823;53.586;10.040;2023-07-16T19:15:01;23.00;1.00
7564;DHT22;3823;53.586;10.040;2023-07-16T19:17:28;23.00;1.00
7564;DHT22;3823;53.586;10.040;2023-07-16T19:19:55;23.00;1.00
7564;DHT22;3823;53.586;10.040;2023-07-16T19:22:24;22.90;1.00
7564;DHT22;3823;53.586;10.040;2023-07-16T19:24:52;22.80;1.00
7564;DHT22;3823;53.586;10.040;2023-07-16T19:27:17;22.80;1.00
7564;DHT22;3823;53.586;10.040;2023-07-16T19:29:43;22.80;1.00
7564;DHT22;3823;53.586;10.040;2023-07-16T19:32:08;22.90;1.00
7564;DHT22;3823;53.586;10.040;2023-07-16T19:34:35;22.90;1.00
7564;DHT22;3823;53.586;10.040;2023-07-16T19:37:00;22.90;1.00
7564;DHT22;3823;53.586;10.040;2023-07-16T19:39:30;22.90;1.00
7564;DHT22;3823;53.586;10.040;2023-07-16T19:41:59;22.90;1.00
7564;DHT22;3823;53.586;10.040;2023-07-16T19:44:24;22.90;1.00
7564;DHT22;3823;53.586;10.040;2023-07-16T19:46:50;22.90;1.00
7564;DHT22;3823;53.586;10.040;2023-07-16T19:49:16;22.90;1.00
7564;DHT22;3823;53.586;10.040;2023-07-16T19:51:41;22.90;1.00
7564;DHT22;3823;53.586;10.040;2023-07-16T19:54:08;22.90;1.00
7564;DHT22;3823;53.586;10.040;2023-07-16T19:56:34;22.80;1.00